WAT3465 LYBE-LJLJ
Flight info
| Callsign | WAT3465 |
|---|---|
| Flight time | 0h 46m |
| Altitude | 31000 |
| Route | TUVAR M19 VBA P735 MAGAM MAGAM2L |
| Aircraft | A320/M-SDE3FGHIRWY/LB1 |
Departure
| Time | 2026-04-14 14:07 |
|---|---|
| Airport | Belgrade Nikola Tesla Airport (LYBE) |
Arrival
| Time | 2026-04-14 14:53 |
|---|---|
| Airport | Ljubljana Jože Pučnik Airport (LJLJ) |
| Time | Latitude | Longitude | Altitude | Speed | Heading |
|---|---|---|---|---|---|
| 2026-04-14 13:40 | 44.82096 | 20.29227 | 307 ft | 0 kts | 212° |
| 2026-04-14 13:57 | 44.82100 | 20.29231 | 307 ft | 2 kts | 211° |
| 2026-04-14 13:58 | 44.82117 | 20.29245 | 306 ft | 3 kts | 212° |
| 2026-04-14 13:58 | 44.82134 | 20.29260 | 307 ft | 3 kts | 215° |
| 2026-04-14 13:58 | 44.82150 | 20.29278 | 306 ft | 3 kts | 230° |
| 2026-04-14 13:58 | 44.82159 | 20.29298 | 307 ft | 2 kts | 281° |
| 2026-04-14 13:59 | 44.82158 | 20.29307 | 306 ft | 0 kts | 301° |
| 2026-04-14 14:02 | 44.82158 | 20.29306 | 306 ft | 0 kts | 301° |
| 2026-04-14 14:02 | 44.82169 | 20.29281 | 308 ft | 3 kts | 301° |
| 2026-04-14 14:02 | 44.82183 | 20.29249 | 307 ft | 7 kts | 302° |
| 2026-04-14 14:02 | 44.82212 | 20.29184 | 307 ft | 7 kts | 302° |
| 2026-04-14 14:03 | 44.82242 | 20.29136 | 307 ft | 6 kts | 336° |
| 2026-04-14 14:03 | 44.82278 | 20.29138 | 307 ft | 4 kts | 17° |
| 2026-04-14 14:03 | 44.82315 | 20.29128 | 307 ft | 9 kts | 322° |
| 2026-04-14 14:03 | 44.82347 | 20.29067 | 309 ft | 5 kts | 303° |
| 2026-04-14 14:04 | 44.82365 | 20.29025 | 307 ft | 5 kts | 300° |
| 2026-04-14 14:04 | 44.82381 | 20.28988 | 307 ft | 4 kts | 302° |
| 2026-04-14 14:04 | 44.82406 | 20.28932 | 307 ft | 6 kts | 303° |
| 2026-04-14 14:04 | 44.82430 | 20.28888 | 307 ft | 5 kts | 313° |
| 2026-04-14 14:05 | 44.82475 | 20.28858 | 307 ft | 5 kts | 354° |
| 2026-04-14 14:05 | 44.82527 | 20.28871 | 307 ft | 11 kts | 22° |
| 2026-04-14 14:05 | 44.82572 | 20.28922 | 307 ft | 7 kts | 47° |
| 2026-04-14 14:05 | 44.82601 | 20.28985 | 307 ft | 9 kts | 64° |
| 2026-04-14 14:06 | 44.82619 | 20.29079 | 306 ft | 11 kts | 84° |
| 2026-04-14 14:06 | 44.82604 | 20.29196 | 309 ft | 13 kts | 114° |
| 2026-04-14 14:06 | 44.82552 | 20.29320 | 307 ft | 19 kts | 122° |
| 2026-04-14 14:06 | 44.82365 | 20.29742 | 308 ft | 86 kts | 122° |
| 2026-04-14 14:07 | 44.81935 | 20.30713 | 312 ft | 144 kts | 121° |
| 2026-04-14 14:07 | 44.81388 | 20.31908 | 922 ft | 143 kts | 120° |
| 2026-04-14 14:07 | 44.80787 | 20.33025 | 1672 ft | 146 kts | 138° |
| 2026-04-14 14:07 | 44.79799 | 20.33592 | 2219 ft | 167 kts | 168° |
| 2026-04-14 14:08 | 44.78579 | 20.33794 | 2716 ft | 187 kts | 170° |
| 2026-04-14 14:08 | 44.77195 | 20.34011 | 3045 ft | 214 kts | 172° |
| 2026-04-14 14:08 | 44.75624 | 20.33913 | 3531 ft | 241 kts | 195° |
| 2026-04-14 14:08 | 44.74180 | 20.32591 | 4280 ft | 258 kts | 225° |
| 2026-04-14 14:09 | 44.73431 | 20.30264 | 5148 ft | 271 kts | 263° |
| 2026-04-14 14:09 | 44.73735 | 20.27640 | 6112 ft | 277 kts | 288° |
| 2026-04-14 14:09 | 44.74466 | 20.25133 | 7140 ft | 278 kts | 293° |
| 2026-04-14 14:09 | 44.75313 | 20.22679 | 8110 ft | 280 kts | 295° |
| 2026-04-14 14:10 | 44.76204 | 20.20224 | 9053 ft | 283 kts | 295° |
| 2026-04-14 14:10 | 44.77096 | 20.17749 | 10002 ft | 285 kts | 294° |
| 2026-04-14 14:10 | 44.77977 | 20.15236 | 10865 ft | 287 kts | 294° |
| 2026-04-14 14:10 | 44.78846 | 20.12690 | 11712 ft | 290 kts | 293° |
| 2026-04-14 14:11 | 44.79709 | 20.10117 | 12552 ft | 293 kts | 292° |
| 2026-04-14 14:11 | 44.80572 | 20.07505 | 13373 ft | 296 kts | 292° |
| 2026-04-14 14:11 | 44.81441 | 20.04859 | 14149 ft | 299 kts | 292° |
| 2026-04-14 14:11 | 44.82316 | 20.02178 | 14843 ft | 303 kts | 292° |
| 2026-04-14 14:12 | 44.83198 | 19.99468 | 15523 ft | 307 kts | 292° |
| 2026-04-14 14:12 | 44.84095 | 19.96714 | 16202 ft | 311 kts | 292° |
| 2026-04-14 14:12 | 44.85003 | 19.93923 | 16873 ft | 315 kts | 292° |
| 2026-04-14 14:12 | 44.85923 | 19.91100 | 17560 ft | 320 kts | 292° |
| 2026-04-14 14:13 | 44.86859 | 19.88233 | 18243 ft | 323 kts | 292° |
| 2026-04-14 14:13 | 44.87802 | 19.85340 | 18842 ft | 327 kts | 292° |
| 2026-04-14 14:13 | 44.88758 | 19.82406 | 19449 ft | 330 kts | 292° |
| 2026-04-14 14:13 | 44.89716 | 19.79458 | 19924 ft | 333 kts | 292° |
| 2026-04-14 14:14 | 44.90680 | 19.76486 | 20087 ft | 333 kts | 292° |
| 2026-04-14 14:14 | 44.91645 | 19.73507 | 20652 ft | 335 kts | 292° |
| 2026-04-14 14:14 | 44.92617 | 19.70501 | 21285 ft | 338 kts | 292° |
| 2026-04-14 14:14 | 44.93594 | 19.67478 | 21900 ft | 340 kts | 292° |
| 2026-04-14 14:15 | 44.94579 | 19.64425 | 22510 ft | 343 kts | 292° |
| 2026-04-14 14:15 | 44.95575 | 19.61341 | 23103 ft | 346 kts | 292° |
| 2026-04-14 14:15 | 44.96575 | 19.58239 | 23691 ft | 349 kts | 292° |
| 2026-04-14 14:15 | 44.97585 | 19.55105 | 24181 ft | 352 kts | 292° |
| 2026-04-14 14:16 | 44.98598 | 19.51947 | 24689 ft | 354 kts | 292° |
| 2026-04-14 14:16 | 44.99611 | 19.48778 | 25196 ft | 356 kts | 292° |
| 2026-04-14 14:16 | 45.00633 | 19.45585 | 25708 ft | 357 kts | 293° |
| 2026-04-14 14:17 | 45.02684 | 19.39188 | 26705 ft | 362 kts | 293° |
| 2026-04-14 14:17 | 45.03723 | 19.35945 | 27200 ft | 364 kts | 293° |
| 2026-04-14 14:17 | 45.04768 | 19.32671 | 27691 ft | 366 kts | 293° |
| 2026-04-14 14:17 | 45.05819 | 19.29375 | 28188 ft | 369 kts | 293° |
| 2026-04-14 14:18 | 45.06873 | 19.26063 | 28670 ft | 371 kts | 293° |
| 2026-04-14 14:18 | 45.07934 | 19.22721 | 29165 ft | 373 kts | 293° |
| 2026-04-14 14:18 | 45.08999 | 19.19356 | 29643 ft | 376 kts | 293° |
| 2026-04-14 14:18 | 45.10070 | 19.15967 | 30011 ft | 378 kts | 293° |
| 2026-04-14 14:19 | 45.12268 | 19.08992 | 30069 ft | 400 kts | 293° |
| 2026-04-14 14:19 | 45.13429 | 19.05343 | 30066 ft | 412 kts | 294° |
| 2026-04-14 14:19 | 45.14655 | 19.01613 | 30067 ft | 423 kts | 294° |
| 2026-04-14 14:20 | 45.17234 | 18.93954 | 30067 ft | 436 kts | 295° |
| 2026-04-14 14:20 | 45.19841 | 18.86167 | 30072 ft | 438 kts | 294° |
| 2026-04-14 14:21 | 45.22424 | 18.78342 | 30073 ft | 438 kts | 294° |
| 2026-04-14 14:21 | 45.24995 | 18.70505 | 30077 ft | 438 kts | 294° |
| 2026-04-14 14:22 | 45.27567 | 18.62653 | 30069 ft | 438 kts | 294° |
| 2026-04-14 14:22 | 45.30136 | 18.54796 | 30070 ft | 439 kts | 294° |
| 2026-04-14 14:23 | 45.32708 | 18.46935 | 30066 ft | 439 kts | 294° |
| 2026-04-14 14:23 | 45.35280 | 18.39044 | 30068 ft | 440 kts | 293° |
| 2026-04-14 14:24 | 45.37839 | 18.31151 | 30062 ft | 440 kts | 293° |
| 2026-04-14 14:24 | 45.40383 | 18.23286 | 30061 ft | 440 kts | 293° |
| 2026-04-14 14:25 | 45.42953 | 18.15312 | 30062 ft | 441 kts | 293° |
| 2026-04-14 14:25 | 45.45502 | 18.07377 | 30063 ft | 441 kts | 293° |
| 2026-04-14 14:26 | 45.48057 | 17.99436 | 30056 ft | 441 kts | 293° |
| 2026-04-14 14:26 | 45.50587 | 17.91539 | 30057 ft | 441 kts | 293° |
| 2026-04-14 14:27 | 45.52714 | 17.84864 | 30059 ft | 441 kts | 293° |
| 2026-04-14 14:27 | 45.55666 | 17.75590 | 30055 ft | 442 kts | 292° |
| 2026-04-14 14:28 | 45.57790 | 17.68893 | 30064 ft | 443 kts | 292° |
| 2026-04-14 14:28 | 45.60325 | 17.60892 | 30055 ft | 442 kts | 292° |
| 2026-04-14 14:29 | 45.62840 | 17.52887 | 30050 ft | 442 kts | 292° |
| 2026-04-14 14:29 | 45.65361 | 17.44872 | 30048 ft | 442 kts | 292° |
| 2026-04-14 14:30 | 45.67876 | 17.36848 | 30051 ft | 442 kts | 292° |
| 2026-04-14 14:30 | 45.70389 | 17.28823 | 30055 ft | 442 kts | 292° |
| 2026-04-14 14:31 | 45.72892 | 17.20771 | 30055 ft | 443 kts | 292° |
| 2026-04-14 14:31 | 45.75141 | 17.12663 | 30058 ft | 440 kts | 283° |
| 2026-04-14 14:32 | 45.76656 | 17.04192 | 29237 ft | 438 kts | 283° |
| 2026-04-14 14:32 | 45.77419 | 16.99951 | 28065 ft | 442 kts | 283° |
| 2026-04-14 14:32 | 45.78186 | 16.95679 | 26891 ft | 446 kts | 283° |
| 2026-04-14 14:33 | 45.78957 | 16.91369 | 26005 ft | 444 kts | 283° |
| 2026-04-14 14:33 | 45.79717 | 16.87100 | 25438 ft | 441 kts | 283° |
| 2026-04-14 14:33 | 45.80472 | 16.82828 | 25203 ft | 443 kts | 283° |
| 2026-04-14 14:33 | 45.81228 | 16.78545 | 24968 ft | 442 kts | 283° |
| 2026-04-14 14:34 | 45.82727 | 16.70012 | 24488 ft | 440 kts | 283° |
| 2026-04-14 14:34 | 45.83471 | 16.65766 | 24256 ft | 439 kts | 283° |
| 2026-04-14 14:34 | 45.84214 | 16.61521 | 24026 ft | 438 kts | 283° |
| 2026-04-14 14:35 | 45.84956 | 16.57286 | 23796 ft | 437 kts | 283° |
| 2026-04-14 14:35 | 45.85429 | 16.54568 | 23640 ft | 436 kts | 283° |
| 2026-04-14 14:35 | 45.86093 | 16.50728 | 23382 ft | 435 kts | 283° |
| 2026-04-14 14:35 | 45.86822 | 16.46521 | 23109 ft | 434 kts | 283° |
| 2026-04-14 14:36 | 45.87552 | 16.42334 | 22840 ft | 432 kts | 283° |
| 2026-04-14 14:36 | 45.88278 | 16.38160 | 22572 ft | 430 kts | 283° |
| 2026-04-14 14:36 | 45.88994 | 16.34007 | 22305 ft | 429 kts | 282° |
| 2026-04-14 14:36 | 45.89699 | 16.29849 | 22042 ft | 427 kts | 282° |
| 2026-04-14 14:37 | 45.90325 | 16.25697 | 21786 ft | 426 kts | 280° |
| 2026-04-14 14:37 | 45.90878 | 16.21526 | 21529 ft | 424 kts | 279° |
| 2026-04-14 14:37 | 45.91384 | 16.17373 | 21265 ft | 422 kts | 278° |
| 2026-04-14 14:37 | 45.91875 | 16.13228 | 21012 ft | 421 kts | 278° |
| 2026-04-14 14:38 | 45.92369 | 16.09091 | 20756 ft | 419 kts | 278° |
| 2026-04-14 14:38 | 45.92872 | 16.04967 | 20506 ft | 418 kts | 278° |
| 2026-04-14 14:38 | 45.93385 | 16.00872 | 20257 ft | 417 kts | 279° |
| 2026-04-14 14:38 | 45.93907 | 15.96785 | 20011 ft | 415 kts | 279° |
| 2026-04-14 14:39 | 45.94432 | 15.92711 | 19772 ft | 414 kts | 279° |
| 2026-04-14 14:39 | 45.94956 | 15.88658 | 19527 ft | 413 kts | 279° |
| 2026-04-14 14:39 | 45.95473 | 15.84625 | 19127 ft | 407 kts | 279° |
| 2026-04-14 14:39 | 45.95978 | 15.80650 | 18571 ft | 404 kts | 278° |
| 2026-04-14 14:40 | 45.96468 | 15.76693 | 17983 ft | 400 kts | 278° |
| 2026-04-14 14:40 | 45.96944 | 15.72769 | 17391 ft | 397 kts | 278° |
| 2026-04-14 14:40 | 45.97414 | 15.68935 | 16946 ft | 392 kts | 278° |
| 2026-04-14 14:40 | 45.97896 | 15.65084 | 16434 ft | 392 kts | 279° |
| 2026-04-14 14:41 | 45.98382 | 15.61235 | 15877 ft | 391 kts | 279° |
| 2026-04-14 14:41 | 45.98862 | 15.57412 | 15388 ft | 387 kts | 278° |
| 2026-04-14 14:41 | 45.99334 | 15.53609 | 14835 ft | 386 kts | 279° |
| 2026-04-14 14:41 | 45.99804 | 15.49814 | 14260 ft | 385 kts | 279° |
| 2026-04-14 14:42 | 46.00274 | 15.46031 | 13654 ft | 383 kts | 279° |
| 2026-04-14 14:42 | 46.00734 | 15.42265 | 13036 ft | 380 kts | 278° |
| 2026-04-14 14:42 | 46.01189 | 15.38540 | 12449 ft | 376 kts | 278° |
| 2026-04-14 14:42 | 46.01637 | 15.34857 | 11852 ft | 372 kts | 278° |
| 2026-04-14 14:43 | 46.02079 | 15.31197 | 11187 ft | 370 kts | 278° |
| 2026-04-14 14:43 | 46.02514 | 15.27590 | 10822 ft | 360 kts | 278° |
| 2026-04-14 14:43 | 46.02937 | 15.24111 | 10656 ft | 345 kts | 278° |
| 2026-04-14 14:43 | 46.03341 | 15.20788 | 10475 ft | 331 kts | 278° |
| 2026-04-14 14:44 | 46.03726 | 15.17584 | 10318 ft | 319 kts | 278° |
| 2026-04-14 14:44 | 46.04093 | 15.14497 | 10183 ft | 307 kts | 278° |
| 2026-04-14 14:44 | 46.04443 | 15.11530 | 10056 ft | 296 kts | 278° |
| 2026-04-14 14:44 | 46.04788 | 15.08649 | 9841 ft | 288 kts | 278° |
| 2026-04-14 14:45 | 46.05127 | 15.05845 | 9702 ft | 282 kts | 278° |
| 2026-04-14 14:45 | 46.05460 | 15.03076 | 9402 ft | 281 kts | 278° |
| 2026-04-14 14:45 | 46.05796 | 15.00254 | 8738 ft | 289 kts | 278° |
| 2026-04-14 14:45 | 46.06133 | 14.97380 | 8200 ft | 293 kts | 278° |
| 2026-04-14 14:46 | 46.06465 | 14.94516 | 7907 ft | 287 kts | 278° |
| 2026-04-14 14:46 | 46.06786 | 14.91743 | 7603 ft | 273 kts | 278° |
| 2026-04-14 14:46 | 46.07095 | 14.89116 | 7203 ft | 263 kts | 279° |
| 2026-04-14 14:46 | 46.07396 | 14.86556 | 6715 ft | 256 kts | 279° |
| 2026-04-14 14:47 | 46.07684 | 14.84077 | 6302 ft | 247 kts | 279° |
| 2026-04-14 14:47 | 46.07969 | 14.81630 | 5671 ft | 248 kts | 280° |
| 2026-04-14 14:47 | 46.08254 | 14.79171 | 5117 ft | 247 kts | 281° |
| 2026-04-14 14:47 | 46.08578 | 14.76805 | 4842 ft | 234 kts | 286° |
| 2026-04-14 14:48 | 46.08978 | 14.74605 | 4681 ft | 218 kts | 287° |
| 2026-04-14 14:48 | 46.09362 | 14.72551 | 4543 ft | 209 kts | 287° |
| 2026-04-14 14:48 | 46.09797 | 14.70540 | 4492 ft | 212 kts | 299° |
| 2026-04-14 14:48 | 46.10556 | 14.68761 | 4407 ft | 204 kts | 307° |
| 2026-04-14 14:49 | 46.11366 | 14.67176 | 4390 ft | 187 kts | 309° |
| 2026-04-14 14:49 | 46.12112 | 14.65722 | 4272 ft | 178 kts | 309° |
| 2026-04-14 14:49 | 46.12857 | 14.64279 | 4088 ft | 182 kts | 309° |
| 2026-04-14 14:49 | 46.13627 | 14.62787 | 3832 ft | 188 kts | 309° |
| 2026-04-14 14:50 | 46.14408 | 14.61275 | 3577 ft | 186 kts | 309° |
| 2026-04-14 14:50 | 46.15172 | 14.59788 | 3308 ft | 182 kts | 309° |
| 2026-04-14 14:50 | 46.15903 | 14.58367 | 3074 ft | 171 kts | 308° |
| 2026-04-14 14:50 | 46.16584 | 14.57039 | 2827 ft | 160 kts | 308° |
| 2026-04-14 14:51 | 46.17236 | 14.55773 | 2666 ft | 152 kts | 307° |
| 2026-04-14 14:51 | 46.17856 | 14.54566 | 2411 ft | 148 kts | 307° |
| 2026-04-14 14:51 | 46.18462 | 14.53386 | 2206 ft | 144 kts | 306° |
| 2026-04-14 14:51 | 46.19053 | 14.52235 | 2013 ft | 141 kts | 307° |
| 2026-04-14 14:52 | 46.19633 | 14.51105 | 1836 ft | 140 kts | 307° |
| 2026-04-14 14:52 | 46.20217 | 14.49964 | 1665 ft | 142 kts | 307° |
| 2026-04-14 14:52 | 46.20810 | 14.48806 | 1474 ft | 145 kts | 307° |
| 2026-04-14 14:52 | 46.21413 | 14.47634 | 1282 ft | 145 kts | 307° |
| 2026-04-14 14:53 | 46.21984 | 14.46520 | 1226 ft | 125 kts | 307° |
| 2026-04-14 14:53 | 46.22408 | 14.45690 | 1244 ft | 72 kts | 306° |
| 2026-04-14 14:53 | 46.22573 | 14.45434 | 1254 ft | 27 kts | 329° |
| 2026-04-14 14:53 | 46.22701 | 14.45354 | 1264 ft | 10 kts | 340° |
| 2026-04-14 14:54 | 46.22746 | 14.45336 | 1259 ft | 0 kts | 349° |
| 2026-04-14 14:55 | 46.22753 | 14.45334 | 1263 ft | 4 kts | 349° |
| 2026-04-14 14:55 | 46.22792 | 14.45325 | 1257 ft | 5 kts | 351° |
| 2026-04-14 14:55 | 46.22842 | 14.45324 | 1261 ft | 9 kts | 16° |
| 2026-04-14 14:55 | 46.22899 | 14.45377 | 1263 ft | 10 kts | 37° |
| 2026-04-14 14:56 | 46.22967 | 14.45432 | 1258 ft | 4 kts | 30° |
| 2026-04-14 14:56 | 46.22991 | 14.45456 | 1261 ft | 3 kts | 36° |
| 2026-04-14 14:56 | 46.22998 | 14.45464 | 1259 ft | 0 kts | 36° |
| 2026-04-14 14:57 | 46.22999 | 14.45464 | 1259 ft | 0 kts | 36° |